PWSweather.com
Personal Weather Stations
Station Observations
MAHIABEACH
Mahia Beach, Mahia Peninsula Hawkes Bay -NZ 4108

Mahia BeachMahia Peninsula Hawkes Bay -NZ 4108

Lat: -39.08872, Lon: 177.878209

Elevation: 72

Station Type: WS2083

http://wairoa.net/mahia/index.htm

Latest ConditionsUpdated 4:15:04 PM GMT+12:12 Monday, Jan 23, 2017
Currently Today's Max Today's Min Today's Average
Temperature 64.6°F18.1°C 69.1°F20.6°C 63.3°F17.4°C 65.3°F18.5°C
Dew Point 49.5°F9.7°C 53.3°F11.8°C 45.6°F7.6°C 48.0°F8.9°C
Winds 8.3 mph ESE13.4 kmh ESE 15.5 mph ESE24.9 kmh ESE - 10.0 mph 16.1 kmh
Wind Gusts 13.6 mph21.9 kmh 30.4 mph48.9 kmh - -
Humidity 58% 65% 46% 54%
Pressure 29.74 in1007.1 mb 29.74 in1007.1 mb 29.42 in996.3 mb -
Precipitation - 0.05 in1.3 mm - -
Hour Temp Dew Point Humidity Winds Wind Gusts Pressure Precip Precip Rate Daily Precip Total
04:15 PM 64.6°F18.1°C 49.5°F9.7°C 58% 8.3 mph ESE13.4 kmh ESE 13.6 mph21.9 kmh 29.74 in1007.1 mb 0.00 in0.0 mm 0.00 in0.0 mm 0.05 in1.3 mm
04:00 PM 64.4°F18.0°C 49.3°F9.6°C 58% 8.7 mph ESE14.0 kmh ESE 15.2 mph24.5 kmh 29.74 in1007.1 mb 0.00 in0.0 mm 0.00 in0.0 mm 0.05 in1.3 mm
03:45 PM 64.8°F18.2°C 50.1°F10.1°C 59% 9.2 mph SE14.8 kmh SE 16.8 mph27.0 kmh 29.74 in1007.1 mb 0.00 in0.0 mm 0.00 in0.0 mm 0.05 in1.3 mm
03:30 PM 64.6°F18.1°C 49.5°F9.7°C 58% 8.2 mph ESE13.2 kmh ESE 16.8 mph27.0 kmh 29.73 in1006.8 mb 0.05 in1.3 mm 0.00 in0.0 mm 0.05 in1.3 mm
03:15 PM 64.4°F18.0°C 49.3°F9.6°C 58% 10.1 mph SE16.3 kmh SE 16.8 mph27.0 kmh 29.73 in1006.8 mb 0.05 in1.3 mm 0.00 in0.0 mm 0.05 in1.3 mm
03:00 PM 64.8°F18.2°C 49.2°F9.6°C 57% 11.8 mph SE19.0 kmh SE 20.6 mph33.2 kmh 29.72 in1006.4 mb 0.05 in1.3 mm 0.00 in0.0 mm 0.05 in1.3 mm
02:45 PM 67.5°F19.7°C 49.8°F9.9°C 53% 11.9 mph SE19.2 kmh SE 19.7 mph31.7 kmh 29.71 in1006.1 mb 0.05 in1.3 mm 0.20 in5.1 mm 0.05 in1.3 mm
02:30 PM 65.1°F18.4°C 49.5°F9.7°C 57% 10.7 mph SE17.2 kmh SE 19.7 mph31.7 kmh 29.71 in1006.1 mb 0.00 in0.0 mm 0.00 in0.0 mm 0.00 in0.0 mm
02:15 PM 65.5°F18.6°C 48.9°F9.4°C 55% 12.9 mph SE20.8 kmh SE 18.3 mph29.5 kmh 29.70 in1005.8 mb 0.00 in0.0 mm 0.00 in0.0 mm 0.00 in0.0 mm
02:00 PM 69.1°F20.6°C 50.2°F10.1°C 51% 11.9 mph SE19.2 kmh SE 22.8 mph36.7 kmh 29.69 in1005.4 mb 0.00 in0.0 mm 0.00 in0.0 mm 0.00 in0.0 mm
01:45 PM 67.1°F19.5°C 49.4°F9.7°C 53% 10.3 mph ESE16.6 kmh ESE 19.0 mph30.6 kmh 29.69 in1005.4 mb 0.00 in0.0 mm 0.00 in0.0 mm 0.00 in0.0 mm
01:30 PM 66.0°F18.9°C 49.9°F9.9°C 56% 12.2 mph SE19.6 kmh SE 22.8 mph36.7 kmh 29.68 in1005.1 mb 0.00 in0.0 mm 0.00 in0.0 mm 0.00 in0.0 mm
01:15 PM 66.9°F19.4°C 50.7°F10.4°C 56% 11.8 mph SE19.0 kmh SE 30.4 mph48.9 kmh 29.68 in1005.1 mb 0.00 in0.0 mm 0.00 in0.0 mm 0.00 in0.0 mm
01:00 PM 65.5°F18.6°C 52.1°F11.2°C 62% 10.9 mph SE17.5 kmh SE 22.1 mph35.6 kmh 29.67 in1004.7 mb 0.00 in0.0 mm 0.00 in0.0 mm 0.00 in0.0 mm
12:45 PM 66.0°F18.9°C 50.8°F10.4°C 58% 11.5 mph ESE18.5 kmh ESE 24.4 mph39.3 kmh 29.67 in1004.7 mb 0.00 in0.0 mm 0.00 in0.0 mm 0.00 in0.0 mm
12:30 PM 66.2°F19.0°C 51.5°F10.8°C 59% 12.3 mph E19.8 kmh E 22.1 mph35.6 kmh 29.66 in1004.4 mb 0.00 in0.0 mm 0.00 in0.0 mm 0.00 in0.0 mm
12:15 PM 66.2°F19.0°C 53.3°F11.8°C 63% 10.6 mph E17.1 kmh E 17.4 mph28.0 kmh 29.66 in1004.4 mb 0.00 in0.0 mm 0.00 in0.0 mm 0.00 in0.0 mm
12:00 PM 64.4°F18.0°C 52.4°F11.3°C 65% 15.5 mph ESE24.9 kmh ESE 25.1 mph40.4 kmh 29.65 in1004.1 mb 0.00 in0.0 mm 0.00 in0.0 mm 0.00 in0.0 mm
11:45 AM 66.9°F19.4°C 49.8°F9.9°C 54% 12.7 mph ESE20.4 kmh ESE 25.1 mph40.4 kmh 29.64 in1003.7 mb 0.00 in0.0 mm 0.00 in0.0 mm 0.00 in0.0 mm
11:30 AM 67.5°F19.7°C 50.3°F10.2°C 54% 10.2 mph ESE16.4 kmh ESE 18.3 mph29.5 kmh 29.63 in1003.4 mb 0.00 in0.0 mm 0.00 in0.0 mm 0.00 in0.0 mm
11:15 AM 67.3°F19.6°C 49.6°F9.8°C 53% 12.3 mph SE19.8 kmh SE 23.5 mph37.8 kmh 29.62 in1003.0 mb 0.00 in0.0 mm 0.00 in0.0 mm 0.00 in0.0 mm
11:00 AM 66.4°F19.1°C 49.3°F9.6°C 54% 12.2 mph SE19.6 kmh SE 21.3 mph34.3 kmh 29.61 in1002.7 mb 0.00 in0.0 mm 0.00 in0.0 mm 0.00 in0.0 mm
10:45 AM 67.5°F19.7°C 49.2°F9.6°C 52% 12.4 mph ESE20.0 kmh ESE 25.1 mph40.4 kmh 29.61 in1002.7 mb 0.00 in0.0 mm 0.00 in0.0 mm 0.00 in0.0 mm
10:30 AM 67.3°F19.6°C 51.1°F10.6°C 56% 9.7 mph SE15.6 kmh SE 22.1 mph35.6 kmh 29.60 in1002.4 mb 0.00 in0.0 mm 0.00 in0.0 mm 0.00 in0.0 mm
10:15 AM 66.2°F19.0°C 49.6°F9.8°C 55% 10.4 mph SE16.7 kmh SE 19.7 mph31.7 kmh 29.59 in1002.0 mb 0.00 in0.0 mm 0.00 in0.0 mm 0.00 in0.0 mm
10:00 AM 65.8°F18.8°C 50.2°F10.1°C 57% 12.2 mph SSE19.6 kmh SSE 19.7 mph31.7 kmh 29.58 in1001.7 mb 0.00 in0.0 mm 0.00 in0.0 mm 0.00 in0.0 mm
09:56 AM 66.7°F19.3°C 48.0°F8.9°C 51% 8.3 mph SE13.4 kmh SE 14.5 mph23.3 kmh 29.54 in1000.3 mb 0.00 in0.0 mm 0.00 in0.0 mm 0.00 in0.0 mm
09:44 AM 66.7°F19.3°C 48.5°F9.2°C 52% 13.0 mph S20.9 kmh S 17.4 mph28.0 kmh 29.57 in1001.4 mb 0.00 in0.0 mm 0.00 in0.0 mm 0.00 in0.0 mm
08:15 AM 66.7°F19.3°C 48.1°F8.9°C 51% 10.9 mph SSE17.5 kmh SSE 22.1 mph35.6 kmh 29.54 in1000.3 mb 0.00 in0.0 mm 0.00 in0.0 mm 0.00 in0.0 mm
08:00 AM 68.4°F20.2°C 46.8°F8.2°C 46% 10.6 mph S17.1 kmh S 17.4 mph28.0 kmh 29.54 in1000.3 mb 0.00 in0.0 mm 0.00 in0.0 mm 0.00 in0.0 mm
07:45 AM 66.2°F19.0°C 47.6°F8.7°C 51% 9.3 mph SSE15.0 kmh SSE 20.6 mph33.2 kmh 29.54 in1000.3 mb 0.00 in0.0 mm 0.00 in0.0 mm 0.00 in0.0 mm
07:30 AM 66.7°F19.3°C 48.1°F8.9°C 51% 9.9 mph S15.9 kmh S 19.0 mph30.6 kmh 29.53 in1000.0 mb 0.00 in0.0 mm 0.00 in0.0 mm 0.00 in0.0 mm
07:15 AM 66.7°F19.3°C 47.5°F8.6°C 50% 9.7 mph SSE15.6 kmh SSE 21.3 mph34.3 kmh 29.52 in999.7 mb 0.00 in0.0 mm 0.00 in0.0 mm 0.00 in0.0 mm
07:00 AM 66.0°F18.9°C 47.9°F8.8°C 52% 11.4 mph S18.3 kmh S 19.7 mph31.7 kmh 29.52 in999.7 mb 0.00 in0.0 mm 0.00 in0.0 mm 0.00 in0.0 mm
06:45 AM 64.4°F18.0°C 46.9°F8.3°C 53% 10.2 mph S16.4 kmh S 19.0 mph30.6 kmh 29.51 in999.3 mb 0.00 in0.0 mm 0.00 in0.0 mm 0.00 in0.0 mm
06:30 AM 64.0°F17.8°C 46.6°F8.1°C 53% 10.8 mph SSE17.4 kmh SSE 22.8 mph36.7 kmh 29.50 in999.0 mb 0.00 in0.0 mm 0.00 in0.0 mm 0.00 in0.0 mm
06:15 AM 63.9°F17.7°C 45.9°F7.7°C 52% 9.6 mph S15.4 kmh S 20.6 mph33.2 kmh 29.49 in998.6 mb 0.00 in0.0 mm 0.00 in0.0 mm 0.00 in0.0 mm
06:00 AM 63.9°F17.7°C 45.9°F7.7°C 52% 10.3 mph SSE16.6 kmh SSE 18.3 mph29.5 kmh 29.49 in998.6 mb 0.00 in0.0 mm 0.00 in0.0 mm 0.00 in0.0 mm
05:45 AM 63.5°F17.5°C 46.6°F8.1°C 54% 7.1 mph S11.4 kmh S 14.5 mph23.3 kmh 29.48 in998.3 mb 0.00 in0.0 mm 0.00 in0.0 mm 0.00 in0.0 mm
05:30 AM 63.5°F17.5°C 46.6°F8.1°C 54% 9.6 mph S15.4 kmh S 19.0 mph30.6 kmh 29.48 in998.3 mb 0.00 in0.0 mm 0.00 in0.0 mm 0.00 in0.0 mm
05:15 AM 63.3°F17.4°C 46.4°F8.0°C 54% 7.9 mph S12.7 kmh S 15.9 mph25.6 kmh 29.47 in998.0 mb 0.00 in0.0 mm 0.00 in0.0 mm 0.00 in0.0 mm
05:00 AM 63.5°F17.5°C 46.6°F8.1°C 54% 8.2 mph S13.2 kmh S 19.0 mph30.6 kmh 29.47 in998.0 mb 0.00 in0.0 mm 0.00 in0.0 mm 0.00 in0.0 mm
04:45 AM 63.7°F17.6°C 46.2°F7.9°C 53% 9.1 mph SSE14.6 kmh SSE 14.5 mph23.3 kmh 29.46 in997.6 mb 0.00 in0.0 mm 0.00 in0.0 mm 0.00 in0.0 mm
04:30 AM 63.5°F17.5°C 45.6°F7.6°C 52% 7.5 mph S12.1 kmh S 14.5 mph23.3 kmh 29.46 in997.6 mb 0.00 in0.0 mm 0.00 in0.0 mm 0.00 in0.0 mm
04:15 AM 63.7°F17.6°C 45.7°F7.6°C 52% 9.5 mph SSE15.3 kmh SSE 19.7 mph31.7 kmh 29.46 in997.6 mb 0.00 in0.0 mm 0.00 in0.0 mm 0.00 in0.0 mm
04:00 AM 63.7°F17.6°C 46.2°F7.9°C 53% 8.5 mph SSE13.7 kmh SSE 15.2 mph24.5 kmh 29.45 in997.3 mb 0.00 in0.0 mm 0.00 in0.0 mm 0.00 in0.0 mm
03:45 AM 63.7°F17.6°C 45.7°F7.6°C 52% 8.3 mph S13.4 kmh S 16.8 mph27.0 kmh 29.45 in997.3 mb 0.00 in0.0 mm 0.00 in0.0 mm 0.00 in0.0 mm
03:30 AM 63.9°F17.7°C 45.9°F7.7°C 52% 9.8 mph SSW15.8 kmh SSW 18.3 mph29.5 kmh 29.45 in997.3 mb 0.00 in0.0 mm 0.00 in0.0 mm 0.00 in0.0 mm
03:15 AM 63.7°F17.6°C 46.2°F7.9°C 53% 8.3 mph SSW13.4 kmh SSW 16.8 mph27.0 kmh 29.45 in997.3 mb 0.00 in0.0 mm 0.00 in0.0 mm 0.00 in0.0 mm
03:00 AM 64.0°F17.8°C 45.6°F7.6°C 51% 10.4 mph S16.7 kmh S 19.0 mph30.6 kmh 29.44 in997.0 mb 0.00 in0.0 mm 0.00 in0.0 mm 0.00 in0.0 mm
02:45 AM 64.2°F17.9°C 45.7°F7.6°C 51% 10.2 mph SSE16.4 kmh SSE 22.1 mph35.6 kmh 29.44 in997.0 mb 0.00 in0.0 mm 0.00 in0.0 mm 0.00 in0.0 mm
02:30 AM 64.2°F17.9°C 45.7°F7.6°C 51% 8.4 mph S13.5 kmh S 15.9 mph25.6 kmh 29.43 in996.6 mb 0.00 in0.0 mm 0.00 in0.0 mm 0.00 in0.0 mm
02:15 AM 64.2°F17.9°C 45.7°F7.6°C 51% 10.3 mph SSE16.6 kmh SSE 17.4 mph28.0 kmh 29.43 in996.6 mb 0.00 in0.0 mm 0.00 in0.0 mm 0.00 in0.0 mm
02:00 AM 64.2°F17.9°C 46.2°F7.9°C 52% 9.2 mph S14.8 kmh S 17.4 mph28.0 kmh 29.42 in996.3 mb 0.00 in0.0 mm 0.00 in0.0 mm 0.00 in0.0 mm
01:45 AM 64.0°F17.8°C 45.6°F7.6°C 51% 6.7 mph SSW10.8 kmh SSW 14.5 mph23.3 kmh 29.43 in996.6 mb 0.00 in0.0 mm 0.00 in0.0 mm 0.00 in0.0 mm
01:30 AM 64.8°F18.2°C 47.2°F8.4°C 53% 10.2 mph SSE16.4 kmh SSE 19.0 mph30.6 kmh 29.43 in996.6 mb 0.00 in0.0 mm 0.00 in0.0 mm 0.00 in0.0 mm
01:15 AM 64.4°F18.0°C 46.9°F8.3°C 53% 7.9 mph SSE12.7 kmh SSE 15.9 mph25.6 kmh 29.43 in996.6 mb 0.00 in0.0 mm 0.00 in0.0 mm 0.00 in0.0 mm
01:00 AM 64.2°F17.9°C 45.7°F7.6°C 51% 7.8 mph SSE12.6 kmh SSE 14.5 mph23.3 kmh 29.42 in996.3 mb 0.00 in0.0 mm 0.00 in0.0 mm 0.00 in0.0 mm
12:45 AM 64.2°F17.9°C 46.2°F7.9°C 52% 5.9 mph S9.5 kmh S 13.0 mph20.9 kmh 29.42 in996.3 mb 0.00 in0.0 mm 0.00 in0.0 mm 0.00 in0.0 mm
12:30 AM 64.2°F17.9°C 46.2°F7.9°C 52% 7.1 mph SSE11.4 kmh SSE 12.1 mph19.5 kmh 29.42 in996.3 mb 0.00 in0.0 mm 0.00 in0.0 mm 0.00 in0.0 mm
12:15 AM 63.9°F17.7°C 45.9°F7.7°C 52% 5.0 mph S8.0 kmh S 13.0 mph20.9 kmh 29.42 in996.3 mb 0.00 in0.0 mm 0.00 in0.0 mm 0.00 in0.0 mm
12:00 AM 63.9°F17.7°C 45.9°F7.7°C 52% 4.7 mph SW7.6 kmh SW 9.8 mph15.8 kmh 29.42 in996.3 mb 0.00 in0.0 mm 0.00 in0.0 mm 0.00 in0.0 mm